Погода Таддертна неделю

Агадир, Марокко

25 - 31 июля
  • 25июля
    Сегодня
    +24°
    +42°
    Небольшая облачность
    ВремяПогодаТемператураВлажностьДавлениеВетер, м/сВероятность осадков
    01:00Практически безоблачно+32°C38 %739 мм0.7 м/с2 %
    04:00Облачно с прояснениями+29°C22 %738 мм2.0 м/с2 %
    07:00Ясно и безоблачно+31°C23 %738 мм0.9 м/с2 %
    10:00Ясно и безоблачно+38°C15 %739 мм0.6 м/с2 %
    13:00Небольшая облачность+42°C14 %738 мм5.1 м/с2 %
    16:00Небольшая облачность+40°C14 %737 мм4.8 м/с2 %
    19:00Практически безоблачно+38°C18 %736 мм3.1 м/с3 %
    22:00Ясно и безоблачно+28°C40 %737 мм1.4 м/с2 %
  • 26июля
    Пятница
    +19°
    +40°
    Практически безоблачно
    ВремяПогодаТемператураВлажностьДавлениеВетер, м/сВероятность осадков
    01:00Ясно и безоблачно+28°C53 %738 мм0.2 м/с2 %
    04:00Ясно и безоблачно+24°C46 %736 мм1.7 м/с2 %
    07:00Ясно и безоблачно+28°C41 %736 мм1.2 м/с2 %
    10:00Ясно и безоблачно+31°C20 %737 мм0.7 м/с2 %
    13:00Практически безоблачно+40°C15 %736 мм3.8 м/с2 %
    16:00Практически безоблачно+38°C17 %735 мм6.4 м/с2 %
    19:00Ясно и безоблачно+37°C20 %735 мм5.5 м/с2 %
    22:00Ясно и безоблачно+25°C57 %737 мм2.6 м/с2 %
  • 27июля
    Суббота
    +20°
    +34°
    Ясно и безоблачно
    ВремяПогодаТемператураВлажностьДавлениеВетер, м/сВероятность осадков
    01:00Ясно и безоблачно+24°C70 %738 мм0.6 м/с2 %
    04:00Ясно и безоблачно+19°C75 %736 мм0.6 м/с2 %
    07:00Ясно и безоблачно+21°C82 %737 мм1.2 м/с2 %
    10:00Ясно и безоблачно+22°C56 %737 мм1.2 м/с2 %
    13:00Ясно и безоблачно+33°C30 %737 мм3.5 м/с2 %
    16:00Ясно и безоблачно+33°C25 %735 мм6.3 м/с2 %
    19:00Ясно и безоблачно+32°C39 %736 мм5.7 м/с2 %
    22:00Ясно и безоблачно+23°C73 %739 мм3.3 м/с2 %
  • 28июля
    Воскресенье
    +18°
    +33°
    Ясно и безоблачно
    ВремяПогодаТемператураВлажностьДавлениеВетер, м/сВероятность осадков
    01:00Ясно и безоблачно+23°C81 %739 мм1.5 м/с2 %
    04:00Ясно и безоблачно+20°C84 %738 мм1.3 м/с2 %
    07:00Небольшая облачность+21°C92 %739 мм1.1 м/с2 %
    10:00Ясно и безоблачно+22°C69 %739 мм0.3 м/с2 %
    13:00Ясно и безоблачно+32°C37 %738 мм4.1 м/с2 %
    16:00Ясно и безоблачно+31°C33 %737 мм5.4 м/с2 %
    19:00Ясно и безоблачно+31°C42 %738 мм5.6 м/с2 %
    22:00Ясно и безоблачно+24°C72 %740 мм2.9 м/с2 %
  • 29июля
    Понедельник
    +18°
    +34°
    Ясно и безоблачно
    ВремяПогодаТемператураВлажностьДавлениеВетер, м/сВероятность осадков
    01:00Ясно и безоблачно+22°C85 %740 мм0.8 м/с2 %
    04:00Ясно и безоблачно+19°C93 %738 мм1.4 м/с2 %
    07:00Облачно с прояснениями+19°C99 %739 мм1.4 м/с2 %
    10:00Ясно и безоблачно+21°C73 %739 мм1.9 м/с2 %
    13:00Ясно и безоблачно+32°C34 %739 мм3.9 м/с2 %
    16:00Ясно и безоблачно+33°C28 %738 мм5.2 м/с2 %
    19:00Ясно и безоблачно+31°C43 %738 мм5.0 м/с2 %
    22:00Ясно и безоблачно+24°C67 %740 мм2.3 м/с2 %
Мы используем cookies
Соглашаюсь